createdAt,value
2019-02-06T00:00:46.359Z,2.18
2019-02-06T00:05:49.534Z,2.16
2019-02-06T00:10:51.101Z,2.14
2019-02-06T00:15:52.700Z,2.13
2019-02-06T00:20:54.219Z,2.13
2019-02-06T00:25:56.126Z,2.10
2019-02-06T00:30:58.037Z,2.08
2019-02-06T00:35:59.645Z,2.06
2019-02-06T00:41:01.400Z,2.06
2019-02-06T00:46:03.200Z,2.05
2019-02-06T00:51:04.896Z,2.03
2019-02-06T00:56:06.516Z,2.03
2019-02-06T01:01:08.076Z,2.03
2019-02-06T01:06:09.620Z,2.02
2019-02-06T01:11:11.180Z,2.02
2019-02-06T01:16:12.939Z,2.00
2019-02-06T01:21:14.999Z,2.01
2019-02-06T01:26:16.890Z,2.03
2019-02-06T01:31:18.512Z,2.05
2019-02-06T01:36:20.013Z,2.06
2019-02-06T01:41:21.578Z,2.06
2019-02-06T01:46:23.160Z,2.06
2019-02-06T01:51:24.826Z,2.08
2019-02-06T01:56:26.836Z,2.13
2019-02-06T02:01:28.405Z,2.14
2019-02-06T02:06:30.084Z,2.17
2019-02-06T02:11:31.718Z,2.16
2019-02-06T02:16:33.283Z,2.17
2019-02-06T02:21:35.252Z,2.16
2019-02-06T02:26:37.332Z,2.15
2019-02-06T02:31:38.845Z,2.14
2019-02-06T02:36:40.433Z,2.12
2019-02-06T02:41:42.032Z,2.12
2019-02-06T02:46:43.606Z,2.12
2019-02-06T02:51:45.227Z,2.14
2019-02-06T02:56:46.900Z,2.14
2019-02-06T03:01:49.175Z,2.13
2019-02-06T03:06:51.118Z,2.15
2019-02-06T03:11:52.712Z,2.16
2019-02-06T03:16:54.260Z,2.18
2019-02-06T03:21:55.798Z,2.20
2019-02-06T03:26:57.434Z,2.19
2019-02-06T03:31:59.135Z,2.21
2019-02-06T03:37:00.657Z,2.19
2019-02-06T03:42:02.547Z,2.22
2019-02-06T03:47:04.172Z,2.24
2019-02-06T03:52:05.743Z,2.19
2019-02-06T03:57:07.595Z,2.21
2019-02-06T04:02:09.214Z,2.28
2019-02-06T04:07:11.043Z,2.36
2019-02-06T04:12:12.981Z,2.38
2019-02-06T04:17:14.856Z,2.35
2019-02-06T04:22:16.448Z,2.34
2019-02-06T04:27:18.025Z,2.25
2019-02-06T04:32:19.557Z,2.21
2019-02-06T04:37:21.426Z,2.26
2019-02-06T04:42:22.990Z,2.33
2019-02-06T04:47:24.581Z,2.42
2019-02-06T04:52:26.512Z,2.44
2019-02-06T04:57:28.075Z,2.40
2019-02-06T05:02:29.691Z,2.38
2019-02-06T05:07:32.260Z,2.45
2019-02-06T05:12:33.885Z,2.52
2019-02-06T05:17:35.895Z,2.62
2019-02-06T05:22:38.015Z,2.69
2019-02-06T05:27:39.978Z,2.71
2019-02-06T05:32:42.956Z,2.72
2019-02-06T05:37:45.710Z,2.75
2019-02-06T05:42:47.975Z,2.80
2019-02-06T05:47:49.516Z,2.81
2019-02-06T05:52:51.161Z,2.82
2019-02-06T05:57:53.299Z,2.81
2019-02-06T06:02:55.489Z,2.83
2019-02-06T06:07:57.026Z,2.80
2019-02-06T06:12:58.907Z,2.77
2019-02-06T06:18:00.578Z,2.76
2019-02-06T06:23:02.145Z,2.74
2019-02-06T06:28:04.431Z,2.77
2019-02-06T06:33:06.484Z,2.82
2019-02-06T06:38:08.033Z,2.89
2019-02-06T06:43:09.729Z,2.94
2019-02-06T06:48:11.289Z,2.96
2019-02-06T06:53:13.131Z,2.99
2019-02-06T06:58:14.715Z,2.97
2019-02-06T07:03:16.602Z,2.96
2019-02-06T07:08:22.848Z,2.93
2019-02-06T07:13:24.427Z,2.96
2019-02-06T07:18:26.090Z,2.96
2019-02-06T07:23:27.670Z,2.95
2019-02-06T07:28:29.310Z,2.97
2019-02-06T07:33:30.883Z,2.95
2019-02-06T07:38:32.438Z,2.98
2019-02-06T07:43:34.152Z,3.01
2019-02-06T07:48:36.057Z,3.03
2019-02-06T07:53:37.992Z,3.06
2019-02-06T07:58:40.025Z,3.04
2019-02-06T08:03:43.168Z,3.09
2019-02-06T08:08:44.692Z,3.11
2019-02-06T08:13:46.237Z,3.12
2019-02-06T08:18:47.840Z,3.16
2019-02-06T08:23:49.377Z,3.23
2019-02-06T08:28:51.052Z,3.28
2019-02-06T08:33:52.615Z,3.31
2019-02-06T08:38:55.672Z,3.37
2019-02-06T08:43:57.498Z,3.40
2019-02-06T08:48:59.087Z,3.48
2019-02-06T08:54:00.826Z,3.56
2019-02-06T08:59:02.978Z,3.60
2019-02-06T09:04:04.522Z,3.65
2019-02-06T09:09:08.766Z,3.71
2019-02-06T09:14:10.339Z,3.82
2019-02-06T09:19:11.933Z,3.93
2019-02-06T09:24:13.595Z,4.06
2019-02-06T09:29:15.130Z,4.09
2019-02-06T09:34:16.894Z,4.09
2019-02-06T09:39:18.421Z,4.20
2019-02-06T09:44:20.066Z,4.32
2019-02-06T09:49:21.593Z,4.35
2019-02-06T09:54:23.310Z,4.35
2019-02-06T09:59:24.890Z,4.35
2019-02-06T10:04:26.921Z,4.38
2019-02-06T10:09:28.554Z,4.45
2019-02-06T10:14:30.126Z,4.50
2019-02-06T10:19:31.681Z,4.56
2019-02-06T10:24:33.324Z,4.65
2019-02-06T10:29:35.392Z,4.71
2019-02-06T10:34:36.933Z,4.70
2019-02-06T10:39:38.531Z,4.73
2019-02-06T10:44:40.064Z,4.79
2019-02-06T10:49:41.758Z,4.82
2019-02-06T10:54:43.398Z,4.87
2019-02-06T10:59:45.250Z,4.98
2019-02-06T11:04:46.929Z,5.01
2019-02-06T11:09:49.162Z,5.03
2019-02-06T11:14:50.883Z,5.11
2019-02-06T11:19:52.513Z,5.09
2019-02-06T11:24:54.049Z,5.10
2019-02-06T11:29:55.621Z,5.16
2019-02-06T11:34:57.216Z,5.17
2019-02-06T11:39:59.465Z,5.22
2019-02-06T11:45:01.004Z,5.32
2019-02-06T11:50:03.889Z,5.37
2019-02-06T11:55:08.921Z,5.43
2019-02-06T12:00:13.196Z,5.43
2019-02-06T12:05:15.447Z,5.45
2019-02-06T12:10:17.310Z,5.56
2019-02-06T12:15:20.006Z,5.55
2019-02-06T12:20:21.599Z,5.58
2019-02-06T12:25:23.201Z,5.59
2019-02-06T12:30:26.966Z,5.63
2019-02-06T12:35:29.239Z,5.62
2019-02-06T12:40:30.751Z,5.70
2019-02-06T12:45:32.444Z,5.76
2019-02-06T12:50:33.937Z,5.84
2019-02-06T12:55:36.399Z,5.85
2019-02-06T13:00:40.188Z,5.85
2019-02-06T13:05:41.774Z,5.89
2019-02-06T13:10:43.426Z,5.92
2019-02-06T13:15:47.203Z,5.97
2019-02-06T13:20:51.214Z,5.98
2019-02-06T13:25:52.068Z,6.00
2019-02-06T13:30:53.755Z,6.00
2019-02-06T13:35:55.408Z,5.97
2019-02-06T13:40:57.102Z,5.96
2019-02-06T13:45:59.185Z,6.01
2019-02-06T13:51:00.785Z,6.08
2019-02-06T13:56:02.894Z,6.12
2019-02-06T14:01:04.502Z,6.12
2019-02-06T14:06:06.092Z,6.10
2019-02-06T14:11:08.259Z,6.08
2019-02-06T14:16:10.566Z,6.08
2019-02-06T14:21:12.425Z,6.14
2019-02-06T14:26:40.983Z,6.14
2019-02-06T14:32:44.080Z,6.22
2019-02-06T14:38:10.507Z,6.19
2019-02-06T14:44:00.230Z,6.25
2019-02-06T14:50:08.137Z,6.26
2019-02-06T14:55:40.248Z,6.29
2019-02-06T15:01:08.371Z,6.28
2019-02-06T15:06:39.735Z,6.25
2019-02-06T15:12:04.021Z,6.25
2019-02-06T15:17:44.129Z,6.25
2019-02-06T15:23:36.411Z,6.26
2019-02-06T15:29:21.807Z,6.30
2019-02-06T15:34:56.051Z,6.30
2019-02-06T15:40:51.717Z,6.29
2019-02-06T15:46:28.114Z,6.30
2019-02-06T15:52:09.861Z,6.31
2019-02-06T15:57:46.634Z,6.26
2019-02-06T16:03:24.660Z,6.24
2019-02-06T16:08:45.545Z,6.23
2019-02-06T16:14:24.496Z,6.24
2019-02-06T16:20:26.618Z,6.24
2019-02-06T16:26:14.868Z,6.22
2019-02-06T16:31:52.604Z,6.22
2019-02-06T16:37:33.775Z,6.23
2019-02-06T16:43:03.950Z,6.21
2019-02-06T16:48:32.049Z,6.24
2019-02-06T16:54:16.546Z,6.26
2019-02-06T16:59:57.831Z,6.41
2019-02-06T17:05:31.141Z,6.28
2019-02-06T17:11:08.256Z,6.27
2019-02-06T17:16:56.365Z,6.29
2019-02-06T17:22:42.396Z,6.28
2019-02-06T17:28:19.676Z,6.30
2019-02-06T17:33:59.658Z,6.30
2019-02-06T17:39:38.991Z,6.32
2019-02-06T17:45:10.200Z,6.30
2019-02-06T17:50:58.611Z,6.32
2019-02-06T17:56:00.503Z,6.30
2019-02-06T18:01:12.566Z,6.34
2019-02-06T18:06:14.935Z,6.35
2019-02-06T18:11:17.587Z,6.37
2019-02-06T18:16:21.590Z,6.40
2019-02-06T18:21:23.879Z,6.41
2019-02-06T18:26:25.582Z,6.41
2019-02-06T18:31:27.209Z,6.44
2019-02-06T18:36:28.777Z,6.46
2019-02-06T18:41:30.320Z,6.50
2019-02-06T18:46:32.120Z,6.47
2019-02-06T18:51:33.678Z,6.48
2019-02-06T18:56:35.331Z,6.49
2019-02-06T19:01:37.359Z,6.52
2019-02-06T19:06:39.327Z,6.55
2019-02-06T19:11:41.081Z,6.55
2019-02-06T19:16:43.348Z,6.56
2019-02-06T19:21:44.965Z,6.56
2019-02-06T19:26:46.838Z,6.57
2019-02-06T19:31:48.445Z,6.57
2019-02-06T19:36:50.300Z,6.57
2019-02-06T19:41:51.927Z,6.58
2019-02-06T19:46:53.583Z,6.59
2019-02-06T19:51:55.266Z,6.61
2019-02-06T19:56:57.365Z,6.57
2019-02-06T20:01:59.053Z,6.61
2019-02-06T20:07:00.953Z,6.64
2019-02-06T20:12:02.529Z,6.63
2019-02-06T20:17:04.146Z,6.64
2019-02-06T20:22:06.079Z,6.64
2019-02-06T20:27:07.906Z,6.63
2019-02-06T20:32:09.472Z,6.62
2019-02-06T20:37:11.161Z,6.65
2019-02-06T20:42:12.768Z,6.65
2019-02-06T20:47:14.399Z,6.65
2019-02-06T20:52:16.340Z,6.67
2019-02-06T20:57:17.962Z,6.68
2019-02-06T21:02:19.495Z,6.67
2019-02-06T21:07:21.104Z,6.67
2019-02-06T21:12:22.758Z,6.68
2019-02-06T21:17:24.350Z,6.68
2019-02-06T21:22:25.920Z,6.69
2019-02-06T21:27:27.546Z,6.70
2019-02-06T21:32:29.482Z,6.73
2019-02-06T21:37:31.290Z,6.70
2019-02-06T21:42:35.650Z,6.71
2019-02-06T21:47:36.808Z,6.73
2019-02-06T21:52:38.322Z,6.72
2019-02-06T21:57:39.872Z,6.70
2019-02-06T22:02:41.448Z,6.73
2019-02-06T22:07:43.128Z,6.69
2019-02-06T22:12:44.884Z,6.69
2019-02-06T22:17:46.402Z,6.70
2019-02-06T22:22:48.358Z,6.70
2019-02-06T22:27:52.342Z,6.72
2019-02-06T22:32:53.962Z,6.72
2019-02-06T22:37:56.108Z,6.72
2019-02-06T22:42:57.659Z,6.70
2019-02-06T22:47:59.271Z,6.70
2019-02-06T22:53:00.768Z,6.68
2019-02-06T22:58:02.320Z,6.66
2019-02-06T23:03:03.957Z,6.63
2019-02-06T23:08:05.701Z,6.61
2019-02-06T23:13:07.661Z,6.61
2019-02-06T23:18:09.527Z,6.57
2019-02-06T23:23:11.107Z,6.57
2019-02-06T23:28:12.772Z,6.56
2019-02-06T23:33:14.491Z,6.55
2019-02-06T23:38:16.023Z,6.54
2019-02-06T23:43:18.339Z,6.53
2019-02-06T23:48:20.276Z,6.52
2019-02-06T23:53:21.791Z,6.51
2019-02-06T23:58:23.425Z,6.50
